x

Freeport, Tx - 60 Nm South Of Freeport, Tx (42019) Wave Buoy

3:50am - Tue 26th May 2015 All times are CDT. -5 hours from GMT.

  • Sig Wave height 5.6ft
  • Swell Direction
  • Peak Period 8s
  • Average Period 5s
  • Wind
    16mph
  • Sea Temp 80°f
  • Air Temp 80°f
  • Sea Pressure 1014.5mb
  • Freeport, Tx - 60 Nm South Of Freeport, Tx
  • Freeport, Tx - 60 Nm South Of Freeport, Tx

More Historic Weather Station data

Upgrade to MSW Pro to gain access to the past 30 days of data for over 8000 Wavebouys and Weather Stations around the globe.

Join Pro

Comparision Forecast

View Surf forecast
   
Tue 05/26 3:50am 5.5ft 8s 5s 16
mph
1014.5mb 80f 80f
2:50am 6ft 7s 6s 16 18 mph 1014.7mb 80f 81f
1:50am 6.5ft 8s 6s 13 16 mph 1014.3mb 80f 80f
12:50am 6.5ft 7s 6s 11 16 mph 1014.6mb 80f 80f
Mon 05/25 11:50pm 6ft 7s 6s 16 18 mph 1013.9mb 80f 81f
10:50pm 6ft 7s 6s 13 18 mph 1013.5mb 80f 81f
9:50pm 6.5ft 7s 6s 16 20 mph 1012.2mb 80f 81f
8:50pm 6ft 7s 5s 16 18 mph 1011.8mb 80f 81f
7:50pm 6ft 7s 5s 18 22 mph 1010.7mb 80f 81f
6:50pm 6.5ft 7s 5s 22 27 mph 1009.5mb 80f 82f
5:50pm 6ft 7s 5s 22 27 mph 1009.5mb 80f 82f
4:50pm 6ft 7s 5s 22 29 mph 1010mb 80f 82f
3:50pm 6ft 7s 5s 18 22 mph 1011.3mb 80f 81f
2:50pm 6ft 7s 5s 18 22 mph 1012.2mb 80f 81f
1:50pm 5.5ft 7s 5s 18 22 mph 1013.1mb 80f 81f
12:50pm 5ft 6s 5s 16 20 mph 1013.8mb 79f 81f
11:50am 5.5ft 7s 5s 18 20 mph 1014mb 79f 81f
10:50am 5.5ft 7s 5s 18 22 mph 1014.2mb 79f 81f
9:50am 5.5ft 7s 5s 20 25 mph 1014.2mb 79f 81f
8:50am 5.5ft 7s 5s 20 25 mph 1013.9mb 79f 81f
7:50am 5ft 5s 5s 18 22 mph 1013.5mb 79f 80f
6:50am 5ft 7s 5s 18 20 mph 1013.4mb 79f 80f
5:50am 5ft 5s 5s 20 25 mph 1013.1mb 79f 80f
4:50am 5ft 7s 5s 20 25 mph 1012.8mb 79f 80f
3:50am 4.5ft 7s 5s 18 20 mph 1012.8mb 79f 80f
2:50am 4.5ft 6s 5s 16 18 mph 1012.9mb 79f 79f
1:50am 5ft 7s 5s 18 20 mph 1013.1mb 79f 79f
12:50am 4.5ft 7s 5s 18 20 mph 1013.7mb 79f 79f
Sun 05/24 11:50pm 4.5ft 7s 5s 18 22 mph 1014.2mb 79f 78f
10:50pm 4.5ft 7s 5s 18 22 mph 1014.2mb 79f 78f
9:50pm 4.5ft 7s 5s 18 20 mph 1013.5mb 79f 78f
8:50pm 4.5ft 7s 5s 16 18 mph 1013mb 79f 78f
7:50pm 4.5ft 8s 5s 16 18 mph 1012.8mb 79f 78f
6:50pm 4.5ft 8s 5s 13 16 mph 1012.7mb 79f 78f
5:50pm 5ft 7s 6s 7 9 mph 1012.6mb 79f 78f
4:50pm 5ft 8s 5s 13 16 mph 1013.2mb 79f 78f
3:50pm 6ft 8s 5s 13 16 mph 1013.5mb 79f 78f
2:50pm 6ft 7s 5s 13 16 mph 1013.5mb 79f 78f
1:50pm 7.5ft 5s 5s 9 20 mph 1013.6mb 79f 77f
12:50pm  -   -   -  31 38 mph 1011.4mb 79f 75f
10:50am 5.5ft 7s 5s 18 22 mph 1014.5mb 79f 76f
9:50am 6ft 7s 5s 20 22 mph 1015.4mb 79f 74f
8:50am 6ft 7s 5s 16 18 mph 1015.3mb 79f 72f
7:50am  -   -   -  16 22 mph 1015.1mb 79f 73f
6:50am 7.5ft 7s 5s 22 29 mph 1014mb 79f 72f
5:50am 7ft 7s 5s 22 29 mph 1013.3mb 79f 79f
4:50am 6ft 7s 5s 22 27 mph 1013.7mb 80f 80f
3:50am 7ft 6s 5s 20 25 mph 1013.3mb 80f 80f
2:50am 6ft 7s 5s 22 29 mph 1013.3mb 80f 81f
1:50am 5.5ft 7s 5s 22 25 mph 1014.8mb 80f 80f
12:50am 6ft 7s 5s 22 27 mph 1015.8mb 80f 81f
Sat 05/23 11:50pm 5.5ft 6s 5s 22 27 mph 1015.4mb 80f 81f
10:50pm 5ft 6s 5s 20 25 mph 1014.9mb 80f 81f
9:50pm 5ft 6s 5s 18 22 mph 1015mb 80f 81f
8:50pm 4.5ft 6s 5s 18 25 mph 1014.7mb 80f 81f
7:50pm 4.5ft 6s 5s 22 25 mph 1014mb 80f 81f
6:50pm 4.5ft 6s 5s 20 25 mph 1014.1mb 80f 81f
5:50pm 4.5ft 6s 5s 18 22 mph 1015.2mb 80f 81f
4:50pm 4.5ft 5s 5s 16 18 mph 1016.4mb 80f 81f
3:50pm 4.5ft 6s 5s 16 20 mph 1017mb 80f 81f
2:50pm 4.5ft 6s 5s 16 18 mph 1018.1mb 80f 81f
1:50pm 4ft 5s 4s 16 20 mph 1018.6mb 80f 81f
12:50pm 4ft 5s 5s 16 18 mph 1019.5mb 80f 81f
11:50am 4ft 6s 4s 13 18 mph 1019.6mb 80f 81f
10:50am 3.5ft 6s 4s 18 20 mph 1019.6mb 80f 81f
9:50am 4ft 5s 4s 13 18 mph 1019.6mb 80f 81f
8:50am 4ft 5s 4s 16 18 mph 1019.5mb 80f 81f
7:50am 4ft 5s 4s 18 20 mph 1018.9mb 80f 80f
6:50am 4ft 5s 4s 18 22 mph 1018.3mb 80f 80f
5:50am 4ft 5s 4s 18 22 mph 1018mb 80f 80f
4:50am 3.5ft 5s 4s 18 22 mph 1018.2mb 80f 80f
3:50am 4ft 5s 4s 18 20 mph 1018.3mb 80f 80f
2:50am 3.5ft 6s 4s 18 20 mph 1018.2mb 80f 80f
1:50am 3.5ft 6s 4s 18 20 mph 1018.4mb 80f 80f
12:50am 3.5ft 5s 4s 13 18 mph 1018.6mb 80f 80f
Fri 05/22 11:50pm 3.5ft 5s 4s 13 16 mph 1018.2mb 80f 80f
10:50pm 3.5ft 6s 4s 13 18 mph 1018mb 80f 80f
9:50pm 3.5ft 6s 5s 13 16 mph 1018mb 80f 80f
8:50pm 3.5ft 6s 5s 13 16 mph 1017.7mb 80f 80f
7:50pm 4ft 6s 5s 13 16 mph 1017.4mb 80f 81f
6:50pm 4ft 6s 5s 11 13 mph 1017.3mb 80f 80f
5:50pm 4ft 6s 5s 16 20 mph 1017.7mb 80f 80f
4:50pm 4.5ft 6s 5s 13 16 mph 1018mb 80f 81f
3:50pm 4.5ft 5s 5s 13 16 mph 1018mb 80f 80f
2:50pm 4.5ft 6s 5s 16 18 mph 1018.3mb 80f 79f
1:50pm 4ft 6s 4s 18 20 mph 1018.4mb 80f 79f
12:50pm 3.5ft 5s 4s 18 20 mph 1018.4mb 80f 79f
11:50am 3.5ft 5s 4s 13 18 mph 1018.8mb 80f 81f
10:50am 3ft 5s 4s 13 16 mph 1018.5mb 80f 80f